createdAt,value
2017-03-14T00:00:03.942Z,4.72
2017-03-14T00:00:08.546Z,4.72
2017-03-14T00:00:13.022Z,4.86
2017-03-14T00:00:17.633Z,4.87
2017-03-14T00:00:22.243Z,4.68
2017-03-14T00:00:26.871Z,4.87
2017-03-14T00:00:31.489Z,4.77
2017-03-14T00:00:36.114Z,4.77
2017-03-14T00:00:40.724Z,4.75
2017-03-14T00:00:45.188Z,4.83
2017-03-14T00:00:49.520Z,4.69
2017-03-14T00:00:53.832Z,4.83
2017-03-14T00:00:58.442Z,4.74
2017-03-14T00:01:03.162Z,4.77
2017-03-14T00:01:07.777Z,4.8
2017-03-14T00:01:12.241Z,4.75
2017-03-14T00:01:16.857Z,4.69
2017-03-14T00:01:21.462Z,4.71
2017-03-14T00:01:26.086Z,4.74
2017-03-14T00:01:30.562Z,4.84
2017-03-14T00:01:35.031Z,4.72
2017-03-14T00:01:39.662Z,4.77
2017-03-14T00:01:44.136Z,4.87
2017-03-14T00:01:48.602Z,4.69
2017-03-14T00:01:53.217Z,4.79
2017-03-14T00:01:57.674Z,4.75
2017-03-14T00:02:02.745Z,4.86
2017-03-14T00:02:07.205Z,4.83
2017-03-14T00:02:11.814Z,4.75
2017-03-14T00:02:16.460Z,4.75
2017-03-14T00:02:21.066Z,4.86
2017-03-14T00:02:25.677Z,4.72
2017-03-14T00:02:30.140Z,4.75
2017-03-14T00:02:34.609Z,4.79
2017-03-14T00:02:39.226Z,4.71
2017-03-14T00:02:43.695Z,4.75
2017-03-14T00:02:48.310Z,4.72
2017-03-14T00:02:52.770Z,4.72
2017-03-14T00:02:57.392Z,4.71
2017-03-14T00:03:01.859Z,4.75
2017-03-14T00:03:06.464Z,4.68
2017-03-14T00:03:11.065Z,4.75
2017-03-14T00:03:15.673Z,4.74
2017-03-14T00:03:20.181Z,4.69
2017-03-14T00:03:24.789Z,4.77
2017-03-14T00:03:29.246Z,4.75
2017-03-14T00:03:33.850Z,4.72
2017-03-14T00:03:38.461Z,4.71
2017-03-14T00:03:43.104Z,4.75
2017-03-14T00:03:47.569Z,4.74
2017-03-14T00:03:52.033Z,4.72
2017-03-14T00:03:56.537Z,4.77
2017-03-14T00:04:01.157Z,4.75
2017-03-14T00:04:05.774Z,4.74
2017-03-14T00:04:10.389Z,4.77
2017-03-14T00:04:15.001Z,4.72
2017-03-14T00:04:19.625Z,4.77
2017-03-14T00:04:24.243Z,4.74
2017-03-14T00:04:28.710Z,4.77
2017-03-14T00:04:33.321Z,4.69
2017-03-14T00:04:37.928Z,4.74
2017-03-14T00:04:42.548Z,4.74
2017-03-14T00:04:47.156Z,4.74
2017-03-14T00:04:51.621Z,4.77
2017-03-14T00:04:55.936Z,4.72
2017-03-14T00:05:00.400Z,4.77
2017-03-14T00:05:04.876Z,4.74
2017-03-14T00:05:09.493Z,4.77
2017-03-14T00:05:14.104Z,4.72
2017-03-14T00:05:18.722Z,4.74
2017-03-14T00:05:23.190Z,4.64
2017-03-14T00:05:27.804Z,4.71
2017-03-14T00:05:32.413Z,4.72
2017-03-14T00:05:37.023Z,4.71
2017-03-14T00:05:41.650Z,4.68
2017-03-14T00:05:46.117Z,4.69
2017-03-14T00:05:50.725Z,4.65
2017-03-14T00:05:55.194Z,4.69
2017-03-14T00:05:59.670Z,4.68
2017-03-14T00:06:03.996Z,4.71
2017-03-14T00:06:08.459Z,4.74
2017-03-14T00:06:13.076Z,4.68
2017-03-14T00:06:17.699Z,4.65
2017-03-14T00:06:22.309Z,4.67
2017-03-14T00:06:26.935Z,4.61
2017-03-14T00:06:31.543Z,4.61
2017-03-14T00:06:36.145Z,4.61
2017-03-14T00:06:40.763Z,4.61
2017-03-14T00:06:45.232Z,4.65
2017-03-14T00:06:49.700Z,4.69
2017-03-14T00:06:54.318Z,4.67
2017-03-14T00:06:58.930Z,4.62
2017-03-14T00:07:03.398Z,4.59
2017-03-14T00:07:07.872Z,4.71
2017-03-14T00:07:12.515Z,4.69
2017-03-14T00:07:17.133Z,4.57
2017-03-14T00:07:21.599Z,4.61
2017-03-14T00:07:26.087Z,4.62
2017-03-14T00:07:30.549Z,4.57
2017-03-14T00:07:35.155Z,4.64
2017-03-14T00:07:39.769Z,4.62
2017-03-14T00:07:44.383Z,4.65
2017-03-14T00:07:48.707Z,4.62
2017-03-14T00:07:53.022Z,4.64
2017-03-14T00:07:57.355Z,4.65
2017-03-14T00:08:01.970Z,4.62
2017-03-14T00:08:06.311Z,4.57
2017-03-14T00:08:10.776Z,4.64
2017-03-14T00:08:15.384Z,4.62
2017-03-14T00:08:20.004Z,4.64
2017-03-14T00:08:24.618Z,4.61
2017-03-14T00:08:29.078Z,4.64
2017-03-14T00:08:33.684Z,4.59
2017-03-14T00:08:38.304Z,4.64
2017-03-14T00:08:42.913Z,4.67
2017-03-14T00:08:47.378Z,4.56
2017-03-14T00:08:51.696Z,4.61
2017-03-14T00:08:56.165Z,4.61
2017-03-14T00:09:00.784Z,4.61
2017-03-14T00:09:05.431Z,4.65
2017-03-14T00:09:10.031Z,4.62
2017-03-14T00:09:14.648Z,4.64
2017-03-14T00:09:19.262Z,4.62
2017-03-14T00:09:23.732Z,4.59
2017-03-14T00:09:28.361Z,4.57
2017-03-14T00:09:32.828Z,4.56
2017-03-14T00:09:37.306Z,4.56
2017-03-14T00:09:41.923Z,4.56
2017-03-14T00:09:46.250Z,4.56
2017-03-14T00:09:50.715Z,4.56
2017-03-14T00:09:55.329Z,4.62
2017-03-14T00:09:59.794Z,4.62
2017-03-14T00:10:04.101Z,4.62
2017-03-14T00:10:08.423Z,4.57
2017-03-14T00:10:13.038Z,4.61
2017-03-14T00:10:17.645Z,4.54
2017-03-14T00:10:22.256Z,4.59
2017-03-14T00:10:26.733Z,4.59
2017-03-14T00:10:31.369Z,4.62
2017-03-14T00:10:35.979Z,4.56
2017-03-14T00:10:40.593Z,4.62
2017-03-14T00:10:45.199Z,4.67
2017-03-14T00:10:49.530Z,4.64
2017-03-14T00:10:53.847Z,4.57
2017-03-14T00:10:58.313Z,4.61
2017-03-14T00:11:02.773Z,4.56
2017-03-14T00:11:07.388Z,4.53
2017-03-14T00:11:12.000Z,4.53
2017-03-14T00:11:16.613Z,4.54
2017-03-14T00:11:21.226Z,4.51
2017-03-14T00:11:25.711Z,4.54
2017-03-14T00:11:30.182Z,4.57
2017-03-14T00:11:34.796Z,4.61
2017-03-14T00:11:39.406Z,4.54
2017-03-14T00:11:44.025Z,4.56
2017-03-14T00:11:48.343Z,4.53
2017-03-14T00:11:52.821Z,4.57
2017-03-14T00:11:57.432Z,4.61
2017-03-14T00:12:01.890Z,4.57
2017-03-14T00:12:06.236Z,4.54
2017-03-14T00:12:10.857Z,4.59
2017-03-14T00:12:15.458Z,4.54
2017-03-14T00:12:20.065Z,4.59
2017-03-14T00:12:24.513Z,4.64
2017-03-14T00:12:29.121Z,4.56
2017-03-14T00:12:33.733Z,4.57
2017-03-14T00:12:38.344Z,4.57
2017-03-14T00:12:42.956Z,4.62
2017-03-14T00:12:47.604Z,4.56
2017-03-14T00:12:52.064Z,4.61
2017-03-14T00:12:56.679Z,4.59
2017-03-14T00:13:01.294Z,4.59
2017-03-14T00:13:05.902Z,4.56
2017-03-14T00:13:10.522Z,4.53
2017-03-14T00:13:15.161Z,4.64
2017-03-14T00:13:19.631Z,4.53
2017-03-14T00:13:23.946Z,4.61
2017-03-14T00:13:28.555Z,4.62
2017-03-14T00:13:33.025Z,4.64
2017-03-14T00:13:37.530Z,4.61
2017-03-14T00:13:42.143Z,4.57
2017-03-14T00:13:46.760Z,4.59
2017-03-14T00:13:51.374Z,4.56
2017-03-14T00:13:55.845Z,4.64
2017-03-14T00:14:00.308Z,4.56
2017-03-14T00:14:04.914Z,4.65
2017-03-14T00:14:09.411Z,4.57
2017-03-14T00:14:14.016Z,4.57
2017-03-14T00:14:18.633Z,4.59
2017-03-14T00:14:23.102Z,4.57
2017-03-14T00:14:27.719Z,4.59
2017-03-14T00:14:32.197Z,4.64
2017-03-14T00:14:36.825Z,4.64
2017-03-14T00:14:41.421Z,4.64
2017-03-14T00:14:46.026Z,4.57
2017-03-14T00:14:50.645Z,4.61
2017-03-14T00:14:55.114Z,4.62
2017-03-14T00:14:59.721Z,4.57
2017-03-14T00:15:04.178Z,4.53
2017-03-14T00:15:08.783Z,4.57
2017-03-14T00:15:13.431Z,4.59
2017-03-14T00:15:18.043Z,4.56
2017-03-14T00:15:22.511Z,4.61
2017-03-14T00:15:26.984Z,4.57
2017-03-14T00:15:31.604Z,4.59
2017-03-14T00:15:36.063Z,4.65
2017-03-14T00:15:40.664Z,4.56
2017-03-14T00:15:45.276Z,4.62
2017-03-14T00:15:49.745Z,4.56
2017-03-14T00:15:54.068Z,4.62
2017-03-14T00:15:58.678Z,4.61
2017-03-14T00:16:03.289Z,4.57
2017-03-14T00:16:07.906Z,4.56
2017-03-14T00:16:12.524Z,4.59
2017-03-14T00:16:16.975Z,4.57
2017-03-14T00:16:21.591Z,4.53
2017-03-14T00:16:26.060Z,4.61
2017-03-14T00:16:30.532Z,4.53
2017-03-14T00:16:35.173Z,4.54
2017-03-14T00:16:39.782Z,4.56
2017-03-14T00:16:44.255Z,4.61
2017-03-14T00:16:48.864Z,4.59
2017-03-14T00:16:53.326Z,4.62
2017-03-14T00:16:57.638Z,4.56
2017-03-14T00:17:02.551Z,4.62
2017-03-14T00:17:07.225Z,4.57
2017-03-14T00:17:11.838Z,4.59
2017-03-14T00:17:16.451Z,4.62
2017-03-14T00:17:21.062Z,4.57
2017-03-14T00:17:25.381Z,4.57
2017-03-14T00:17:29.708Z,4.57
2017-03-14T00:17:34.182Z,4.57
2017-03-14T00:17:38.792Z,4.61
2017-03-14T00:17:43.414Z,4.51
2017-03-14T00:17:47.740Z,4.64
2017-03-14T00:17:52.199Z,4.57
2017-03-14T00:17:56.664Z,4.59
2017-03-14T00:18:01.283Z,4.53
2017-03-14T00:18:05.901Z,4.62
2017-03-14T00:18:10.365Z,4.62
2017-03-14T00:18:14.981Z,4.56
2017-03-14T00:18:19.597Z,4.56
2017-03-14T00:18:24.061Z,4.54
2017-03-14T00:18:28.677Z,4.61
2017-03-14T00:18:33.178Z,4.54
2017-03-14T00:18:37.791Z,4.62
2017-03-14T00:18:42.400Z,4.61
2017-03-14T00:18:46.867Z,4.54
2017-03-14T00:18:51.338Z,4.56
2017-03-14T00:18:55.815Z,4.62
2017-03-14T00:19:00.422Z,4.64
2017-03-14T00:19:05.030Z,4.61
2017-03-14T00:19:09.643Z,4.62
2017-03-14T00:19:14.255Z,4.59
2017-03-14T00:19:18.876Z,4.57
2017-03-14T00:19:23.343Z,4.59
2017-03-14T00:19:27.956Z,4.57
2017-03-14T00:19:32.416Z,4.61
2017-03-14T00:19:37.035Z,4.57
2017-03-14T00:19:41.662Z,4.61
2017-03-14T00:19:46.274Z,4.57
2017-03-14T00:19:50.880Z,4.61
2017-03-14T00:19:55.499Z,4.59
2017-03-14T00:20:00.105Z,4.56
2017-03-14T00:20:04.564Z,4.62
2017-03-14T00:20:09.179Z,4.59
2017-03-14T00:20:13.806Z,4.62
2017-03-14T00:20:18.407Z,4.59
2017-03-14T00:20:23.021Z,4.59
2017-03-14T00:20:27.645Z,4.61
2017-03-14T00:20:32.115Z,4.56
2017-03-14T00:20:36.724Z,4.64
2017-03-14T00:20:41.348Z,4.57
2017-03-14T00:20:45.810Z,4.56
2017-03-14T00:20:50.267Z,4.57
2017-03-14T00:20:54.583Z,4.56
2017-03-14T00:20:59.085Z,4.57
2017-03-14T00:21:03.858Z,4.62
2017-03-14T00:21:08.463Z,4.64
2017-03-14T00:21:13.074Z,4.64
2017-03-14T00:21:17.674Z,4.59
2017-03-14T00:21:22.134Z,4.57
2017-03-14T00:21:26.449Z,4.62
2017-03-14T00:21:31.066Z,4.57
2017-03-14T00:21:35.677Z,4.61
2017-03-14T00:21:40.285Z,4.57
2017-03-14T00:21:44.898Z,4.59
2017-03-14T00:21:49.359Z,4.59
2017-03-14T00:21:53.972Z,4.67
2017-03-14T00:21:58.445Z,4.56
2017-03-14T00:22:02.906Z,4.54
2017-03-14T00:22:07.366Z,4.56
2017-03-14T00:22:11.831Z,4.64
2017-03-14T00:22:16.441Z,4.57
2017-03-14T00:22:20.902Z,4.57
2017-03-14T00:22:25.509Z,4.59
2017-03-14T00:22:30.121Z,4.61
2017-03-14T00:22:34.770Z,4.54
2017-03-14T00:22:39.380Z,4.59
2017-03-14T00:22:43.986Z,4.54
2017-03-14T00:22:48.455Z,4.56
2017-03-14T00:22:52.925Z,4.61
2017-03-14T00:22:57.539Z,4.64
2017-03-14T00:23:02.148Z,4.56
2017-03-14T00:23:06.757Z,4.57
2017-03-14T00:23:11.367Z,4.57
2017-03-14T00:23:15.985Z,4.57
2017-03-14T00:23:20.597Z,4.59
2017-03-14T00:23:25.079Z,4.57
2017-03-14T00:23:29.591Z,4.56
2017-03-14T00:23:34.057Z,4.62
2017-03-14T00:23:38.691Z,4.59
2017-03-14T00:23:43.310Z,4.59
2017-03-14T00:23:47.922Z,4.61
2017-03-14T00:23:52.250Z,4.57
2017-03-14T00:23:56.718Z,4.56
2017-03-14T00:24:01.181Z,4.53
2017-03-14T00:24:05.792Z,4.5
2017-03-14T00:24:10.264Z,4.57
2017-03-14T00:24:14.883Z,4.53
2017-03-14T00:24:19.348Z,4.53
2017-03-14T00:24:23.954Z,4.57
2017-03-14T00:24:28.577Z,4.56
2017-03-14T00:24:33.039Z,4.57
2017-03-14T00:24:37.647Z,4.59
2017-03-14T00:24:42.253Z,4.54
2017-03-14T00:24:46.878Z,4.53
2017-03-14T00:24:51.345Z,4.53
2017-03-14T00:24:55.957Z,4.64
2017-03-14T00:25:00.566Z,4.53
2017-03-14T00:25:04.890Z,4.53
2017-03-14T00:25:09.501Z,4.51
2017-03-14T00:25:14.115Z,4.56
2017-03-14T00:25:18.721Z,4.57
2017-03-14T00:25:23.190Z,4.57
2017-03-14T00:25:27.803Z,4.57
2017-03-14T00:25:32.416Z,4.51
2017-03-14T00:25:37.029Z,4.5
2017-03-14T00:25:41.643Z,4.5
2017-03-14T00:25:46.250Z,4.47
2017-03-14T00:25:50.862Z,4.53
2017-03-14T00:25:55.328Z,4.5
2017-03-14T00:25:59.930Z,4.53
2017-03-14T00:26:04.543Z,4.57
2017-03-14T00:26:09.147Z,4.51
2017-03-14T00:26:13.767Z,4.54
2017-03-14T00:26:18.395Z,4.62
2017-03-14T00:26:22.850Z,4.53
2017-03-14T00:26:27.471Z,4.5
2017-03-14T00:26:31.805Z,4.46
2017-03-14T00:26:36.404Z,4.46
2017-03-14T00:26:41.017Z,4.62
2017-03-14T00:26:45.334Z,4.54
2017-03-14T00:26:49.957Z,4.56
2017-03-14T00:26:54.422Z,4.57
2017-03-14T00:26:59.033Z,4.53
2017-03-14T00:27:03.359Z,4.47
2017-03-14T00:27:07.911Z,4.51
2017-03-14T00:27:12.522Z,4.54
2017-03-14T00:27:16.986Z,4.5
2017-03-14T00:27:21.605Z,4.47
2017-03-14T00:27:26.088Z,4.54
2017-03-14T00:27:30.554Z,4.5
2017-03-14T00:27:35.176Z,4.56
2017-03-14T00:27:39.793Z,4.49
2017-03-14T00:27:44.403Z,4.49
2017-03-14T00:27:49.020Z,4.53
2017-03-14T00:27:53.647Z,4.49
2017-03-14T00:27:58.262Z,4.5
2017-03-14T00:28:02.874Z,4.59
2017-03-14T00:28:07.342Z,4.57
2017-03-14T00:28:11.803Z,4.56
2017-03-14T00:28:16.425Z,4.54
2017-03-14T00:28:21.041Z,4.57
2017-03-14T00:28:25.496Z,4.54
2017-03-14T00:28:29.959Z,4.47
2017-03-14T00:28:34.422Z,4.49
2017-03-14T00:28:39.040Z,4.51
2017-03-14T00:28:43.506Z,4.51
2017-03-14T00:28:48.159Z,4.49
2017-03-14T00:28:52.773Z,4.51
2017-03-14T00:28:57.388Z,4.57
2017-03-14T00:29:01.855Z,4.51
2017-03-14T00:29:06.311Z,4.51
2017-03-14T00:29:10.921Z,4.54
2017-03-14T00:29:15.524Z,4.47
2017-03-14T00:29:19.985Z,4.57
2017-03-14T00:29:24.458Z,4.56
2017-03-14T00:29:29.067Z,4.57
2017-03-14T00:29:33.673Z,4.51
2017-03-14T00:29:38.289Z,4.51
2017-03-14T00:29:42.897Z,4.61
2017-03-14T00:29:47.355Z,4.56
2017-03-14T00:29:51.991Z,4.57
2017-03-14T00:29:56.607Z,4.51
2017-03-14T00:30:01.074Z,4.57
2017-03-14T00:30:05.685Z,4.57
2017-03-14T00:30:10.150Z,4.54
2017-03-14T00:30:14.754Z,4.53
2017-03-14T00:30:19.368Z,4.57
2017-03-14T00:30:23.976Z,4.51
2017-03-14T00:30:28.597Z,4.57
2017-03-14T00:30:33.214Z,4.53
2017-03-14T00:30:37.823Z,4.57
2017-03-14T00:30:42.434Z,4.61
2017-03-14T00:30:47.040Z,4.57
2017-03-14T00:30:51.503Z,4.57
2017-03-14T00:30:56.113Z,4.59
2017-03-14T00:31:00.736Z,4.57
2017-03-14T00:31:05.450Z,4.56
2017-03-14T00:31:10.061Z,4.54
2017-03-14T00:31:14.671Z,4.59
2017-03-14T00:31:19.293Z,4.54
2017-03-14T00:31:23.902Z,4.61
2017-03-14T00:31:28.373Z,4.59
2017-03-14T00:31:32.845Z,4.56
2017-03-14T00:31:37.471Z,4.57
2017-03-14T00:31:42.079Z,4.53
2017-03-14T00:31:46.688Z,4.56
2017-03-14T00:31:51.306Z,4.61
2017-03-14T00:31:55.780Z,4.57
2017-03-14T00:32:00.247Z,4.57
2017-03-14T00:32:05.012Z,4.54
2017-03-14T00:32:09.676Z,4.54
2017-03-14T00:32:14.146Z,4.57
2017-03-14T00:32:18.613Z,4.54
2017-03-14T00:32:23.072Z,4.56
2017-03-14T00:32:27.697Z,4.56
2017-03-14T00:32:32.315Z,4.54
2017-03-14T00:32:36.926Z,4.61
2017-03-14T00:32:41.530Z,4.59
2017-03-14T00:32:46.138Z,4.61
2017-03-14T00:32:50.749Z,4.62
2017-03-14T00:32:55.210Z,4.61
2017-03-14T00:32:59.820Z,4.56
2017-03-14T00:33:04.585Z,4.56
2017-03-14T00:33:09.218Z,4.54
2017-03-14T00:33:13.824Z,4.59
2017-03-14T00:33:18.437Z,4.54
2017-03-14T00:33:23.052Z,4.56
2017-03-14T00:33:27.530Z,4.61
2017-03-14T00:33:32.145Z,4.56
2017-03-14T00:33:36.758Z,4.59
2017-03-14T00:33:41.386Z,4.59
2017-03-14T00:33:46.026Z,4.57
2017-03-14T00:33:50.629Z,4.53
2017-03-14T00:33:54.951Z,4.57
2017-03-14T00:33:59.564Z,4.57
2017-03-14T00:34:04.175Z,4.53
2017-03-14T00:34:08.646Z,4.59
2017-03-14T00:34:13.268Z,4.57
2017-03-14T00:34:17.899Z,4.54
2017-03-14T00:34:22.353Z,4.59
2017-03-14T00:34:26.955Z,4.62
2017-03-14T00:34:31.557Z,4.61
2017-03-14T00:34:36.018Z,4.57
2017-03-14T00:34:40.481Z,4.64
2017-03-14T00:34:45.082Z,4.57
2017-03-14T00:34:49.683Z,4.61
2017-03-14T00:34:54.139Z,4.59
2017-03-14T00:34:58.588Z,4.59
2017-03-14T00:35:03.092Z,4.61
2017-03-14T00:35:07.548Z,4.61
2017-03-14T00:35:12.002Z,4.56
2017-03-14T00:35:16.607Z,4.59
2017-03-14T00:35:21.069Z,4.59
2017-03-14T00:35:25.670Z,4.56
2017-03-14T00:35:29.989Z,4.54
2017-03-14T00:35:34.605Z,4.51
2017-03-14T00:35:39.218Z,4.59
2017-03-14T00:35:43.825Z,4.59
2017-03-14T00:35:48.288Z,4.56
2017-03-14T00:35:52.895Z,4.62
2017-03-14T00:35:57.489Z,4.59
2017-03-14T00:36:01.945Z,4.62
2017-03-14T00:36:06.407Z,4.59
2017-03-14T00:36:10.899Z,4.57
2017-03-14T00:36:15.516Z,4.53
2017-03-14T00:36:19.827Z,4.51
2017-03-14T00:36:24.444Z,4.57
2017-03-14T00:36:29.055Z,4.53
2017-03-14T00:36:33.521Z,4.57
2017-03-14T00:36:38.145Z,4.59
2017-03-14T00:36:42.454Z,4.57
2017-03-14T00:36:46.777Z,4.56
2017-03-14T00:36:51.388Z,4.56
2017-03-14T00:36:55.711Z,4.56
2017-03-14T00:37:00.324Z,4.51
2017-03-14T00:37:04.804Z,4.57
2017-03-14T00:37:09.420Z,4.56
2017-03-14T00:37:13.883Z,4.56
2017-03-14T00:37:18.347Z,4.54
2017-03-14T00:37:22.511Z,4.57
2017-03-14T00:37:26.972Z,4.57
2017-03-14T00:37:31.280Z,4.57
2017-03-14T00:37:35.886Z,4.59
2017-03-14T00:37:40.356Z,4.56
2017-03-14T00:37:44.828Z,4.57
2017-03-14T00:37:49.433Z,4.61
2017-03-14T00:37:54.038Z,4.56
2017-03-14T00:37:58.511Z,4.57
2017-03-14T00:38:03.126Z,4.61
2017-03-14T00:38:07.436Z,4.53
2017-03-14T00:38:12.049Z,4.54
2017-03-14T00:38:16.509Z,4.54
2017-03-14T00:38:21.121Z,4.59
2017-03-14T00:38:25.731Z,4.64
2017-03-14T00:38:30.047Z,4.61
2017-03-14T00:38:34.371Z,4.53
2017-03-14T00:38:38.995Z,4.54
2017-03-14T00:38:43.606Z,4.54
2017-03-14T00:38:48.217Z,4.51
2017-03-14T00:38:52.711Z,4.54
2017-03-14T00:38:57.326Z,4.57
2017-03-14T00:39:01.932Z,4.57
2017-03-14T00:39:06.400Z,4.56
2017-03-14T00:39:11.005Z,4.51
2017-03-14T00:39:15.627Z,4.49
2017-03-14T00:39:20.237Z,4.53
2017-03-14T00:39:24.704Z,4.53
2017-03-14T00:39:29.325Z,4.47
2017-03-14T00:39:33.643Z,4.51
2017-03-14T00:39:38.263Z,4.57
2017-03-14T00:39:42.877Z,4.57
2017-03-14T00:39:47.338Z,4.44
2017-03-14T00:39:51.802Z,4.51
2017-03-14T00:39:56.264Z,4.47
2017-03-14T00:40:00.877Z,4.47
2017-03-14T00:40:05.483Z,4.53
2017-03-14T00:40:10.093Z,4.51
2017-03-14T00:40:14.707Z,4.47
2017-03-14T00:40:19.176Z,4.51
2017-03-14T00:40:23.491Z,4.46
2017-03-14T00:40:27.951Z,4.51
2017-03-14T00:40:32.129Z,4.5
2017-03-14T00:40:36.741Z,4.47
2017-03-14T00:40:41.205Z,4.44
2017-03-14T00:40:45.664Z,4.53
2017-03-14T00:40:50.273Z,4.46
2017-03-14T00:40:54.737Z,4.56
2017-03-14T00:40:59.214Z,4.47
2017-03-14T00:41:03.692Z,4.47
2017-03-14T00:41:08.304Z,4.56
2017-03-14T00:41:12.911Z,4.54
2017-03-14T00:41:17.534Z,4.53
2017-03-14T00:41:22.141Z,4.51
2017-03-14T00:41:26.607Z,4.49
2017-03-14T00:41:31.212Z,4.5
2017-03-14T00:41:35.830Z,4.54
2017-03-14T00:41:40.460Z,4.46
2017-03-14T00:41:45.082Z,4.46
2017-03-14T00:41:49.699Z,4.54
2017-03-14T00:41:54.315Z,4.53
2017-03-14T00:41:58.636Z,4.51
2017-03-14T00:42:03.275Z,4.56
2017-03-14T00:42:07.736Z,4.5
2017-03-14T00:42:12.348Z,4.53
2017-03-14T00:42:16.950Z,4.51
2017-03-14T00:42:21.414Z,4.47
2017-03-14T00:42:26.026Z,4.47
2017-03-14T00:42:30.488Z,4.51
2017-03-14T00:42:35.110Z,4.47
2017-03-14T00:42:39.724Z,4.49
2017-03-14T00:42:44.333Z,4.47
2017-03-14T00:42:48.794Z,4.56
2017-03-14T00:42:53.110Z,4.59
2017-03-14T00:42:57.593Z,4.54
2017-03-14T00:43:02.304Z,4.54
2017-03-14T00:43:06.915Z,4.54
2017-03-14T00:43:11.524Z,4.47
2017-03-14T00:43:16.140Z,4.54
2017-03-14T00:43:20.628Z,4.44
2017-03-14T00:43:25.090Z,4.5
2017-03-14T00:43:29.702Z,4.51
2017-03-14T00:43:34.167Z,4.54
2017-03-14T00:43:38.782Z,4.54
2017-03-14T00:43:43.400Z,4.5
2017-03-14T00:43:48.016Z,4.5
2017-03-14T00:43:52.477Z,4.39
2017-03-14T00:43:56.939Z,4.44
2017-03-14T00:44:01.905Z,4.47
2017-03-14T00:44:06.377Z,4.53
2017-03-14T00:44:10.985Z,4.51
2017-03-14T00:44:15.593Z,4.47
2017-03-14T00:44:20.064Z,4.44
2017-03-14T00:44:24.529Z,4.5
2017-03-14T00:44:29.012Z,4.5
2017-03-14T00:44:33.490Z,4.49
2017-03-14T00:44:38.102Z,4.47
2017-03-14T00:44:42.714Z,4.47
2017-03-14T00:44:47.188Z,4.44
2017-03-14T00:44:51.800Z,4.5
2017-03-14T00:44:56.260Z,4.44
2017-03-14T00:45:00.868Z,4.47
2017-03-14T00:45:05.336Z,4.38
2017-03-14T00:45:09.976Z,4.36
2017-03-14T00:45:14.587Z,4.46
2017-03-14T00:45:18.907Z,4.44
2017-03-14T00:45:23.527Z,4.47
2017-03-14T00:45:28.009Z,4.42
2017-03-14T00:45:32.613Z,4.46
2017-03-14T00:45:37.075Z,4.47
2017-03-14T00:45:41.688Z,4.44
2017-03-14T00:45:46.302Z,4.44
2017-03-14T00:45:50.915Z,4.47
2017-03-14T00:45:55.527Z,4.5
2017-03-14T00:45:59.993Z,4.39
2017-03-14T00:46:04.720Z,4.47
2017-03-14T00:46:09.340Z,4.44
2017-03-14T00:46:13.797Z,4.38
2017-03-14T00:46:18.406Z,4.49
2017-03-14T00:46:23.012Z,4.47
2017-03-14T00:46:27.644Z,4.5
2017-03-14T00:46:32.262Z,4.53
2017-03-14T00:46:36.726Z,4.46
2017-03-14T00:46:41.345Z,4.46
2017-03-14T00:46:45.665Z,4.44
2017-03-14T00:46:50.172Z,4.43
2017-03-14T00:46:54.636Z,4.46
2017-03-14T00:46:59.250Z,4.44
2017-03-14T00:47:03.717Z,4.42
2017-03-14T00:47:08.329Z,4.46
2017-03-14T00:47:12.944Z,4.46
2017-03-14T00:47:17.557Z,4.46
2017-03-14T00:47:22.024Z,4.43
2017-03-14T00:47:26.634Z,4.39
2017-03-14T00:47:30.952Z,4.39
2017-03-14T00:47:35.407Z,4.49
2017-03-14T00:47:40.007Z,4.47
2017-03-14T00:47:44.605Z,4.39
2017-03-14T00:47:49.094Z,4.44
2017-03-14T00:47:53.559Z,4.38
2017-03-14T00:47:58.186Z,4.42
2017-03-14T00:48:02.656Z,4.39
2017-03-14T00:48:07.110Z,4.43
2017-03-14T00:48:11.719Z,4.39
2017-03-14T00:48:16.325Z,4.43
2017-03-14T00:48:20.948Z,4.43
2017-03-14T00:48:25.554Z,4.39
2017-03-14T00:48:30.152Z,4.42
2017-03-14T00:48:34.754Z,4.44
2017-03-14T00:48:39.379Z,4.43
2017-03-14T00:48:43.982Z,4.46
2017-03-14T00:48:48.581Z,4.39
2017-03-14T00:48:52.895Z,4.47
2017-03-14T00:48:57.515Z,4.44
2017-03-14T00:49:01.984Z,4.43
2017-03-14T00:49:06.442Z,4.46
2017-03-14T00:49:10.907Z,4.39
2017-03-14T00:49:15.547Z,4.44
2017-03-14T00:49:20.158Z,4.46
2017-03-14T00:49:24.624Z,4.36
2017-03-14T00:49:29.094Z,4.35
2017-03-14T00:49:33.583Z,4.34
2017-03-14T00:49:38.196Z,4.42
2017-03-14T00:49:42.810Z,4.34
2017-03-14T00:49:47.409Z,4.38
2017-03-14T00:49:52.013Z,4.42
2017-03-14T00:49:56.474Z,4.34
2017-03-14T00:50:01.074Z,4.34
2017-03-14T00:50:05.536Z,4.42
2017-03-14T00:50:10.148Z,4.39
2017-03-14T00:50:14.611Z,4.35
2017-03-14T00:50:19.085Z,4.38
2017-03-14T00:50:23.552Z,4.42
2017-03-14T00:50:28.170Z,4.34
2017-03-14T00:50:32.785Z,4.36
2017-03-14T00:50:37.432Z,4.39
2017-03-14T00:50:42.045Z,4.34
2017-03-14T00:50:46.524Z,4.42
2017-03-14T00:50:51.131Z,4.35
2017-03-14T00:50:55.739Z,4.32
2017-03-14T00:51:00.201Z,4.26
2017-03-14T00:51:05.119Z,4.31
2017-03-14T00:51:09.732Z,4.29
2017-03-14T00:51:14.343Z,4.35
2017-03-14T00:51:18.797Z,4.32
2017-03-14T00:51:23.115Z,4.34
2017-03-14T00:51:27.615Z,4.38
2017-03-14T00:51:31.929Z,4.29
2017-03-14T00:51:36.251Z,4.35
2017-03-14T00:51:40.869Z,4.35
2017-03-14T00:51:45.488Z,4.32
2017-03-14T00:51:49.831Z,4.34
2017-03-14T00:51:54.444Z,4.35
2017-03-14T00:51:59.102Z,4.24
2017-03-14T00:52:03.558Z,4.32
2017-03-14T00:52:08.025Z,4.39
2017-03-14T00:52:12.635Z,4.35
2017-03-14T00:52:17.249Z,4.34
2017-03-14T00:52:21.859Z,4.34
2017-03-14T00:52:26.321Z,4.29
2017-03-14T00:52:30.789Z,4.31
2017-03-14T00:52:35.425Z,4.28
2017-03-14T00:52:40.041Z,4.31
2017-03-14T00:52:44.654Z,4.43
2017-03-14T00:52:49.268Z,4.34
2017-03-14T00:52:53.738Z,4.32
2017-03-14T00:52:58.358Z,4.28
2017-03-14T00:53:02.823Z,4.35
2017-03-14T00:53:07.431Z,4.25
2017-03-14T00:53:12.042Z,4.35
2017-03-14T00:53:16.647Z,4.25
2017-03-14T00:53:21.115Z,4.26
2017-03-14T00:53:25.728Z,4.31
2017-03-14T00:53:30.193Z,4.31
2017-03-14T00:53:34.800Z,4.28
2017-03-14T00:53:39.408Z,4.31
2017-03-14T00:53:43.900Z,4.32
2017-03-14T00:53:48.367Z,4.29
2017-03-14T00:53:52.982Z,4.31
2017-03-14T00:53:57.446Z,4.28
2017-03-14T00:54:02.104Z,4.25
2017-03-14T00:54:06.572Z,4.39
2017-03-14T00:54:11.182Z,4.31
2017-03-14T00:54:15.784Z,4.24
2017-03-14T00:54:20.396Z,4.32
2017-03-14T00:54:25.008Z,4.21
2017-03-14T00:54:29.332Z,4.26
2017-03-14T00:54:33.937Z,4.26
2017-03-14T00:54:38.553Z,4.26
2017-03-14T00:54:43.015Z,4.31
2017-03-14T00:54:47.483Z,4.31
2017-03-14T00:54:52.093Z,4.35
2017-03-14T00:54:56.559Z,4.21
2017-03-14T00:55:01.171Z,4.34
2017-03-14T00:55:05.705Z,4.26
2017-03-14T00:55:10.317Z,4.25
2017-03-14T00:55:14.971Z,4.36
2017-03-14T00:55:19.437Z,4.21
2017-03-14T00:55:23.905Z,4.24
2017-03-14T00:55:28.524Z,4.31
2017-03-14T00:55:32.988Z,4.32
2017-03-14T00:55:37.603Z,4.2
2017-03-14T00:55:42.217Z,4.24
2017-03-14T00:55:46.690Z,4.31
2017-03-14T00:55:51.293Z,4.28
2017-03-14T00:55:55.772Z,4.2
2017-03-14T00:56:00.273Z,4.31
2017-03-14T00:56:04.831Z,4.34
2017-03-14T00:56:09.294Z,4.28
2017-03-14T00:56:13.910Z,4.28
2017-03-14T00:56:18.527Z,4.29
2017-03-14T00:56:23.132Z,4.29
2017-03-14T00:56:27.595Z,4.31
2017-03-14T00:56:32.211Z,4.32
2017-03-14T00:56:36.815Z,4.29
2017-03-14T00:56:41.418Z,4.32
2017-03-14T00:56:45.873Z,4.28
2017-03-14T00:56:50.486Z,4.32
2017-03-14T00:56:55.095Z,4.34
2017-03-14T00:56:59.725Z,4.25
2017-03-14T00:57:04.039Z,4.25
2017-03-14T00:57:08.513Z,4.29
2017-03-14T00:57:13.124Z,4.28
2017-03-14T00:57:17.735Z,4.26
2017-03-14T00:57:22.052Z,4.24
2017-03-14T00:57:26.655Z,4.29
2017-03-14T00:57:31.280Z,4.28
2017-03-14T00:57:35.753Z,4.25
2017-03-14T00:57:40.362Z,4.28
2017-03-14T00:57:44.980Z,4.24
2017-03-14T00:57:49.595Z,4.26
2017-03-14T00:57:53.766Z,4.24
2017-03-14T00:57:58.405Z,4.29
2017-03-14T00:58:03.267Z,4.25
2017-03-14T00:58:07.874Z,4.26
2017-03-14T00:58:12.506Z,4.25
2017-03-14T00:58:16.969Z,4.24
2017-03-14T00:58:21.584Z,4.32
2017-03-14T00:58:26.197Z,4.26
2017-03-14T00:58:30.658Z,4.18
2017-03-14T00:58:35.272Z,4.24
2017-03-14T00:58:39.882Z,4.28
2017-03-14T00:58:44.345Z,4.31
2017-03-14T00:58:48.818Z,4.29
2017-03-14T00:58:53.144Z,4.28
2017-03-14T00:58:57.613Z,4.26
2017-03-14T00:59:02.282Z,4.26
2017-03-14T00:59:06.893Z,4.29
2017-03-14T00:59:11.502Z,4.24
2017-03-14T00:59:16.107Z,4.26
2017-03-14T00:59:20.725Z,4.24
2017-03-14T00:59:25.046Z,4.28
2017-03-14T00:59:29.654Z,4.31
2017-03-14T00:59:34.117Z,4.25
2017-03-14T00:59:38.736Z,4.32
2017-03-14T00:59:43.337Z,4.26
2017-03-14T00:59:47.944Z,4.21
2017-03-14T00:59:52.605Z,4.25
2017-03-14T00:59:57.066Z,4.24
2017-03-14T01:00:01.872Z,4.26
2017-03-14T01:00:06.342Z,4.26
2017-03-14T01:00:10.824Z,4.25
2017-03-14T01:00:15.432Z,4.28
2017-03-14T01:00:20.050Z,4.32
2017-03-14T01:00:24.665Z,4.26
2017-03-14T01:00:28.979Z,4.25
2017-03-14T01:00:33.156Z,4.26
2017-03-14T01:00:37.773Z,4.28